Airfield :
LOGIN :

Register | Disclaimer

   EN    FR    IT 

 










Legend :    VFR   Marginal VFR   IFR   Intensive IFR   Very Intensive IFR
Visi :
Ceiling :
>= 8 km
>= 3000ft
5 to 8 km
1000 to 3000 ft
1500m to 5 km
500 to 1000 ft
800 to 1500m
200 to 500 ft
< 800m
< 200 ft
Symbols :   Thunderstorms  Fog  Heavy snow  Heavy precipitations  Wind > 20 kt
SIGMETs :     Misc.  Thunderstorms  Icing  Turbulence  Mountain Waves  Volcanic Ashes






- Airport Elevation : 2077 ft
- IATA code : FMM


EDJA - Memmingen

CURRENT METAR :
  • 301550Z 17007KT 9999 FEW062 25/17 Q1012

EXPIRED METARs :
  • 301520Z 15005KT CAVOK 25/16 Q1013
  • 301450Z 08003KT 9999 VCTS SCT150CB 26/17 Q1012
  • 301420Z 06004KT 9999 FEW049 26/16 Q1012
  • 301350Z 03003KT 300V070 9999 FEW056 28/14 Q1012
  • 301320Z 07005KT 030V150 CAVOK 29/15 Q1012

TAF TAF EDJA
Valid from the 30 at 15:00 until the 01 at 00:00 UTC


301400Z 3015/3024 07005KT 9999 FEW040
PROB30
TEMPO 3015/3018 24015G25KT TSRA BKN035CB
BECMG 3016/3018 VRB03KT
BECMG 3020/3021 23005KT
PROB30
TEMPO 3020/3024 25015G25KT TSRA BKN030CB



MET'MAP, your aeronautical weather chart ! - Copyright ORBIFLY December 2007 - Disclaimer

ORBIFLY MET'MAP TEAM :

Programming & Development : Alexandra Zaïnal
Original concept : Baudouin d'Aumeries
Technical & hardware support : Manuel Goepfert
Assistance : Marc-Olivier Méhu




SOURCES & CREDITS :

   NOAA